Time;durP1;ratioP1;P1;durP2;ratioP2;P2;SDS_P1;SDS_P2;PMS_P1;PMS_P2;Temp;Humidity;BMP_temperature;BMP_pressure;BME280_temperature;BME280_humidity;BME280_pressure;Samples;Min_cycle;Max_cycle;Signal;HPM_P1;HPM_P2
2021/06/12 00:02:14;;;;;;;3.10;2.90;;;26.10;68.50;;;;;;5123071;28;20099;-43
2021/06/12 00:04:41;;;;;;;3.20;3.00;;;26.10;68.40;;;;;;5124237;28;20031;-42
2021/06/12 00:07:07;;;;;;;3.20;3.00;;;26.10;68.40;;;;;;5124431;28;20020;-42
2021/06/12 00:09:33;;;;;;;3.20;2.90;;;26.10;68.40;;;;;;5122967;28;20065;-41
2021/06/12 00:11:59;;;;;;;3.13;2.83;;;26.10;68.30;;;;;;5124148;28;20024;-41
2021/06/12 00:14:25;;;;;;;3.00;2.70;;;26.10;68.40;;;;;;5123926;28;20568;-43
2021/06/12 00:16:51;;;;;;;2.88;2.67;;;26.10;68.40;;;;;;5124305;28;20035;-42
2021/06/12 00:19:18;;;;;;;3.08;2.55;;;26.10;68.30;;;;;;5108132;28;20036;-39
2021/06/12 00:21:44;;;;;;;2.97;2.77;;;26.10;68.40;;;;;;5103745;28;20036;-41
2021/06/12 00:24:10;;;;;;;3.07;2.87;;;26.10;68.30;;;;;;5085147;28;20032;-42
2021/06/12 00:26:36;;;;;;;4.80;2.72;;;26.10;68.30;;;;;;5103606;28;20038;-43
2021/06/12 00:29:03;;;;;;;3.00;2.70;;;26.10;68.40;;;;;;5103631;28;20551;-43
2021/06/12 00:31:29;;;;;;;2.80;2.60;;;26.10;68.40;;;;;;5103410;28;20031;-41
2021/06/12 00:33:55;;;;;;;2.60;2.35;;;26.10;68.40;;;;;;5103264;28;20024;-45
2021/06/12 00:36:22;;;;;;;2.80;2.60;;;26.10;68.40;;;;;;5103080;28;20034;-42
2021/06/12 00:38:49;;;;;;;2.90;2.70;;;26.10;68.40;;;;;;5105432;28;20031;-42
2021/06/12 00:41:15;;;;;;;3.20;2.80;;;26.10;68.40;;;;;;5105299;28;20092;-42
2021/06/12 00:43:42;;;;;;;2.95;2.75;;;26.10;69.10;;;;;;5123340;28;20028;-42
2021/06/12 00:46:09;;;;;;;3.10;2.90;;;26.10;68.40;;;;;;5123595;28;20035;-42
2021/06/12 00:48:35;;;;;;;2.90;2.70;;;26.00;68.30;;;;;;5109486;27;20106;-43
2021/06/12 00:51:02;;;;;;;2.72;2.53;;;26.00;68.30;;;;;;5128768;27;20024;-43
2021/06/12 00:53:37;;;;;;;3.25;2.95;;;26.00;68.20;;;;;;5123456;28;20546;-42
2021/06/12 00:56:05;;;;;;;2.92;2.72;;;26.00;68.30;;;;;;5123521;28;20035;-43
2021/06/12 00:58:33;;;;;;;2.70;2.50;;;26.00;68.40;;;;;;5105112;28;20506;-42
2021/06/12 01:01:00;;;;;;;3.05;2.78;;;26.00;68.30;;;;;;5105280;28;20033;-41
2021/06/12 01:03:27;;;;;;;2.90;2.67;;;26.00;69.10;;;;;;5123014;28;20046;-41
2021/06/12 01:05:53;;;;;;;;;;;26.00;68.30;;;;;;5123853;28;20027;-41
2021/06/12 01:08:19;;;;;;;2.47;2.28;;;26.00;68.30;;;;;;5122702;28;20056;-42
2021/06/12 01:10:45;;;;;;;3.10;2.80;;;26.00;68.30;;;;;;5123065;28;20031;-42
2021/06/12 01:13:30;;;;;;;3.05;2.50;;;26.00;68.30;;;;;;5123224;28;20106;-42
2021/06/12 01:16:18;;;;;;;3.08;2.78;;;26.00;68.40;;;;;;5123370;28;20088;-43
2021/06/12 01:18:45;;;;;;;3.40;3.10;;;26.00;68.40;;;;;;5123009;28;20034;-43
2021/06/12 01:21:31;;;;;;;3.05;2.85;;;26.00;68.40;;;;;;5121808;28;20054;-43
2021/06/12 01:24:15;;;;;;;3.30;3.00;;;26.00;68.40;;;;;;5122775;28;20039;-43
2021/06/12 01:27:03;;;;;;;2.90;2.70;;;26.00;68.40;;;;;;5122841;28;20028;-41
2021/06/12 01:29:35;;;;;;;3.30;3.00;;;26.00;68.40;;;;;;5121498;28;20040;-41
2021/06/12 01:32:01;;;;;;;3.33;3.03;;;25.90;68.30;;;;;;5122948;28;20023;-41
2021/06/12 01:34:27;;;;;;;3.38;3.08;;;25.90;68.40;;;;;;5104588;28;20042;-42
2021/06/12 01:36:53;;;;;;;3.08;2.78;;;26.00;68.50;;;;;;5123354;28;20468;-43
2021/06/12 01:39:23;;;;;;;2.80;2.60;;;25.90;68.40;;;;;;5120999;28;20044;-42
2021/06/12 01:41:51;;;;;;;2.80;2.60;;;25.90;68.40;;;;;;5105126;28;20023;-42
2021/06/12 01:44:18;;;;;;;2.83;2.63;;;25.90;68.40;;;;;;5121141;28;20099;-42
2021/06/12 01:46:45;;;;;;;3.28;2.63;;;25.90;68.50;;;;;;5121527;28;20031;-41
2021/06/12 01:49:12;;;;;;;;;;;25.90;68.50;;;;;;5101264;28;20040;-42
2021/06/12 01:51:38;;;;;;;3.10;2.80;;;25.90;68.40;;;;;;5104167;28;19954;-43
2021/06/12 01:54:05;;;;;;;3.00;2.75;;;25.80;68.40;;;;;;5122627;28;20023;-42
2021/06/12 01:56:31;;;;;;;2.73;2.53;;;25.80;69.20;;;;;;5121168;28;20034;-43
2021/06/12 01:58:57;;;;;;;2.75;2.55;;;25.80;68.40;;;;;;5104298;28;20298;-43
2021/06/12 02:01:23;;;;;;;2.90;2.67;;;25.80;68.40;;;;;;5121472;28;20111;-42
2021/06/12 02:03:49;;;;;;;3.07;2.70;;;25.80;68.40;;;;;;5121399;28;20063;-43
2021/06/12 02:06:16;;;;;;;2.97;2.77;;;25.80;68.40;;;;;;5104471;28;20059;-42
2021/06/12 02:08:43;;;;;;;2.92;2.72;;;25.80;69.20;;;;;;5122548;28;20440;-42
2021/06/12 02:11:14;;;;;;;2.95;2.70;;;25.80;68.40;;;;;;5121292;28;20432;-42
2021/06/12 02:13:41;;;;;;;2.90;2.70;;;25.80;68.40;;;;;;5104895;28;20030;-41
2021/06/12 02:16:07;;;;;;;2.60;2.40;;;25.80;68.50;;;;;;5106264;28;20032;-43
2021/06/12 02:18:33;;;;;;;3.20;2.93;;;25.80;68.40;;;;;;5094342;28;20031;-42
2021/06/12 02:20:59;;;;;;;2.67;2.47;;;25.80;68.40;;;;;;5125128;28;20058;-43
2021/06/12 02:23:27;;;;;;;3.40;2.35;;;25.80;68.40;;;;;;5108172;28;20032;-42
2021/06/12 02:25:53;;;;;;;2.95;2.75;;;25.80;68.40;;;;;;5126269;28;20019;-41
2021/06/12 02:28:20;;;;;;;2.88;2.67;;;25.80;68.40;;;;;;5124963;28;20087;-41
2021/06/12 02:30:56;;;;;;;2.80;2.60;;;25.80;68.40;;;;;;5124999;28;20039;-42
2021/06/12 02:33:23;;;;;;;3.10;2.90;;;25.80;68.40;;;;;;5124704;28;20104;-42
2021/06/12 02:35:49;;;;;;;3.27;2.83;;;25.80;68.50;;;;;;5107506;28;20083;-42
2021/06/12 02:38:15;;;;;;;2.53;2.33;;;25.80;68.40;;;;;;5126179;28;20292;-41
2021/06/12 02:40:41;;;;;;;2.80;2.60;;;25.70;68.40;;;;;;5125848;28;20027;-41
2021/06/12 02:43:07;;;;;;;3.08;2.88;;;25.70;68.40;;;;;;5126223;28;20052;-41
2021/06/12 02:45:33;;;;;;;2.63;2.42;;;25.70;68.40;;;;;;5114879;28;20028;-43
2021/06/12 02:48:13;;;;;;;3.03;2.73;;;25.70;68.40;;;;;;5101893;28;20050;-42
2021/06/12 02:50:39;;;;;;;2.58;2.38;;;25.70;68.50;;;;;;5107806;28;20034;-42
2021/06/12 02:53:07;;;;;;;2.80;2.60;;;25.70;68.40;;;;;;5107436;28;20030;-42
2021/06/12 02:55:41;;;;;;;2.95;2.75;;;25.70;68.40;;;;;;5090286;28;20031;-43
2021/06/12 02:58:08;;;;;;;2.83;2.63;;;25.70;68.50;;;;;;5125640;28;20538;-41
2021/06/12 03:00:34;;;;;;;;;;;25.60;68.50;;;;;;5107740;28;20024;-42
2021/06/12 03:03:00;;;;;;;3.28;2.85;;;25.60;68.40;;;;;;5107148;28;19915;-41
2021/06/12 03:05:31;;;;;;;3.25;2.95;;;25.60;68.40;;;;;;5106934;28;20024;-41
2021/06/12 03:07:58;;;;;;;3.03;2.72;;;25.60;68.50;;;;;;5125412;28;20891;-41
2021/06/12 03:10:26;;;;;;;3.00;2.75;;;25.60;68.40;;;;;;5090114;28;20023;-41
2021/06/12 03:12:52;;;;;;;2.92;2.63;;;25.60;68.40;;;;;;5090257;28;20384;-42
2021/06/12 03:15:18;;;;;;;2.70;2.50;;;25.60;68.40;;;;;;5097840;28;20024;-42
2021/06/12 03:17:45;;;;;;;3.10;2.90;;;25.60;68.30;;;;;;5089326;28;20028;-43
2021/06/12 03:20:11;;;;;;;;;;;25.60;68.30;;;;;;5125912;28;20028;-41
2021/06/12 03:22:38;;;;;;;3.17;2.90;;;25.60;68.40;;;;;;5107028;28;19943;-42
2021/06/12 03:25:05;;;;;;;2.85;2.65;;;25.60;68.40;;;;;;5089798;28;20024;-41
2021/06/12 03:27:31;;;;;;;3.28;2.97;;;25.60;68.30;;;;;;5106862;28;20590;-42
2021/06/12 03:29:57;;;;;;;3.33;2.88;;;25.60;68.30;;;;;;5089163;28;20050;-41
2021/06/12 03:32:24;;;;;;;2.77;2.57;;;25.60;68.30;;;;;;5089280;28;20076;-42
2021/06/12 03:34:50;;;;;;;3.03;2.80;;;25.60;68.20;;;;;;5105792;28;20036;-43
2021/06/12 03:37:16;;;;;;;2.90;2.70;;;25.60;68.20;;;;;;5106276;28;20509;-43
2021/06/12 03:39:42;;;;;;;2.80;2.60;;;25.50;68.20;;;;;;5106815;28;20099;-42
2021/06/12 03:42:09;;;;;;;3.15;2.95;;;25.50;68.10;;;;;;5124843;28;20024;-42
2021/06/12 03:44:35;;;;;;;2.90;2.60;;;25.50;68.20;;;;;;5103977;28;20476;-42
2021/06/12 03:47:02;;;;;;;2.90;2.60;;;25.50;68.20;;;;;;5090228;27;20031;-43
2021/06/12 03:49:28;;;;;;;2.90;2.70;;;25.50;68.20;;;;;;5109096;27;20046;-42
2021/06/12 03:51:54;;;;;;;3.05;2.78;;;25.50;68.20;;;;;;5109024;28;20126;-43
2021/06/12 03:54:20;;;;;;;4.47;3.00;;;25.50;68.20;;;;;;5106597;28;20027;-42
2021/06/12 03:56:47;;;;;;;2.92;2.72;;;25.40;68.20;;;;;;5105838;28;20027;-41
2021/06/12 03:59:13;;;;;;;3.20;2.70;;;25.40;68.10;;;;;;5105956;28;20070;-43
2021/06/12 04:01:40;;;;;;;3.03;2.83;;;25.40;68.10;;;;;;5105818;28;20542;-42
2021/06/12 04:04:06;;;;;;;3.92;2.88;;;25.40;68.10;;;;;;5105943;28;20111;-42
2021/06/12 04:06:32;;;;;;;3.33;3.03;;;25.40;68.20;;;;;;5124174;28;20035;-42
2021/06/12 04:08:58;;;;;;;3.00;2.80;;;25.40;68.00;;;;;;5124166;28;20134;-43
2021/06/12 04:11:25;;;;;;;2.92;2.70;;;25.40;68.00;;;;;;5123965;28;20027;-43
2021/06/12 04:13:51;;;;;;;2.80;2.60;;;25.40;67.80;;;;;;5124045;28;20045;-42
2021/06/12 04:16:17;;;;;;;3.10;2.90;;;25.40;67.80;;;;;;5107083;28;20028;-44
2021/06/12 04:18:44;;;;;;;2.90;2.67;;;25.40;67.70;;;;;;5114631;28;20050;-41
2021/06/12 04:21:10;;;;;;;2.88;2.67;;;25.40;67.80;;;;;;5105785;28;20035;-42
2021/06/12 04:23:36;;;;;;;2.83;2.63;;;25.40;67.80;;;;;;5124119;28;20039;-43
2021/06/12 04:26:02;;;;;;;3.10;2.80;;;25.40;67.70;;;;;;5123898;28;20087;-42
2021/06/12 04:28:28;;;;;;;3.05;2.85;;;25.40;67.60;;;;;;5123639;28;20031;-43
2021/06/12 04:30:55;;;;;;;3.13;2.83;;;25.40;67.70;;;;;;5123528;28;20031;-42
2021/06/12 04:33:21;;;;;;;2.93;2.70;;;25.40;67.60;;;;;;5123924;28;20024;-41
2021/06/12 04:35:47;;;;;;;2.85;2.55;;;25.30;67.50;;;;;;5123933;28;20032;-43
2021/06/12 04:38:13;;;;;;;4.07;2.63;;;25.30;67.60;;;;;;5123624;28;20024;-41
2021/06/12 04:40:39;;;;;;;3.25;2.95;;;25.30;67.50;;;;;;5123412;28;20050;-41
2021/06/12 04:43:06;;;;;;;2.97;2.78;;;25.30;67.60;;;;;;5122705;28;20483;-41
2021/06/12 04:45:32;;;;;;;3.53;2.90;;;25.30;67.70;;;;;;5112926;28;20092;-43
2021/06/12 04:48:00;;;;;;;3.20;2.90;;;25.30;67.70;;;;;;5116111;27;20057;-42
2021/06/12 04:50:28;;;;;;;2.75;2.55;;;25.30;67.70;;;;;;5134720;27;20035;-42
2021/06/12 04:52:54;;;;;;;2.75;2.55;;;25.30;67.70;;;;;;5143971;27;20023;-43
2021/06/12 04:55:20;;;;;;;2.80;2.60;;;25.30;67.70;;;;;;5144050;27;20584;-43
2021/06/12 04:57:46;;;;;;;2.92;2.72;;;25.30;67.60;;;;;;5143585;27;20061;-42
2021/06/12 05:00:13;;;;;;;3.13;2.83;;;25.20;67.70;;;;;;5143926;27;20019;-42
2021/06/12 05:02:39;;;;;;;3.53;2.65;;;25.20;67.70;;;;;;5143953;27;20095;-42
2021/06/12 05:05:07;;;;;;;2.90;2.70;;;25.20;67.40;;;;;;5125361;27;20023;-42
2021/06/12 05:07:33;;;;;;;3.03;2.78;;;25.20;67.40;;;;;;5143685;27;20430;-41
2021/06/12 05:09:59;;;;;;;3.10;2.90;;;25.20;67.40;;;;;;5143612;27;20035;-43
2021/06/12 05:12:25;;;;;;;2.92;2.67;;;25.20;67.30;;;;;;5125860;27;20268;-43
2021/06/12 05:14:55;;;;;;;2.97;2.77;;;25.20;67.40;;;;;;5118412;28;20028;-42
2021/06/12 05:17:21;;;;;;;3.55;3.25;;;25.20;67.40;;;;;;5102249;28;20035;-43
2021/06/12 05:19:47;;;;;;;3.10;2.80;;;25.20;67.40;;;;;;5122826;28;20038;-41
2021/06/12 05:22:14;;;;;;;2.80;2.60;;;25.20;67.40;;;;;;5123160;28;20020;-42
2021/06/12 05:24:40;;;;;;;3.95;2.72;;;25.10;67.30;;;;;;5123268;28;20023;-43
2021/06/12 05:27:07;;;;;;;3.03;2.83;;;25.10;67.30;;;;;;5121736;28;20031;-42
2021/06/12 05:29:33;;;;;;;;;;;25.10;67.30;;;;;;5123163;28;20035;-42
2021/06/12 05:31:59;;;;;;;2.67;2.47;;;25.10;67.30;;;;;;5122888;28;19914;-41
2021/06/12 05:34:26;;;;;;;3.08;2.75;;;25.10;67.30;;;;;;5122987;28;20061;-42
2021/06/12 05:36:52;;;;;;;2.75;2.55;;;25.10;67.40;;;;;;5122616;28;20130;-41
2021/06/12 05:39:18;;;;;;;2.97;2.75;;;25.10;67.40;;;;;;5104616;28;20031;-41
2021/06/12 05:41:44;;;;;;;2.72;2.53;;;25.10;67.30;;;;;;5122255;28;20024;-42
2021/06/12 05:44:11;;;;;;;3.13;2.92;;;25.10;67.40;;;;;;5122358;28;20043;-42
2021/06/12 05:46:37;;;;;;;2.97;2.75;;;25.10;67.30;;;;;;5122136;28;20043;-42
2021/06/12 05:49:03;;;;;;;2.80;2.60;;;25.00;67.30;;;;;;5123196;28;20057;-42
2021/06/12 05:51:29;;;;;;;2.90;2.60;;;25.10;67.30;;;;;;5134083;28;20035;-42
2021/06/12 05:53:55;;;;;;;3.33;3.03;;;25.00;67.40;;;;;;5144817;27;20031;-42
2021/06/12 05:56:21;;;;;;;2.75;2.55;;;25.00;67.30;;;;;;5147215;27;20090;-42
2021/06/12 05:58:48;;;;;;;3.00;2.80;;;25.00;67.30;;;;;;5147139;27;20059;-42
2021/06/12 06:01:14;;;;;;;3.13;2.70;;;25.00;67.30;;;;;;5147196;27;20833;-42
2021/06/12 06:03:40;;;;;;;4.28;2.78;;;25.00;67.30;;;;;;5147169;27;20031;-43
2021/06/12 06:06:07;;;;;;;2.63;2.42;;;25.00;67.40;;;;;;5147405;27;20050;-43
2021/06/12 06:08:34;;;;;;;3.10;2.80;;;25.00;67.30;;;;;;5146844;27;20064;-42
2021/06/12 06:11:00;;;;;;;2.75;2.55;;;25.00;67.40;;;;;;5141267;27;20586;-43
2021/06/12 06:13:26;;;;;;;2.80;2.60;;;25.00;67.30;;;;;;5126660;28;20039;-42
2021/06/12 06:15:52;;;;;;;3.37;2.90;;;25.00;67.30;;;;;;5126351;28;20027;-43
2021/06/12 06:18:19;;;;;;;2.93;2.73;;;25.00;67.30;;;;;;5125865;28;20016;-41
2021/06/12 06:20:45;;;;;;;3.58;3.10;;;24.90;67.40;;;;;;5126439;28;20030;-43
2021/06/12 06:23:11;;;;;;;2.90;2.70;;;24.90;67.40;;;;;;5126490;28;20031;-42
2021/06/12 06:25:38;;;;;;;2.83;2.63;;;25.00;67.40;;;;;;5126241;28;20019;-43
2021/06/12 06:28:04;;;;;;;2.88;2.67;;;24.90;67.40;;;;;;5107374;28;20039;-43
2021/06/12 06:30:30;;;;;;;2.83;2.63;;;24.90;67.40;;;;;;5126109;28;20035;-41
2021/06/12 06:32:56;;;;;;;2.78;2.58;;;24.90;67.40;;;;;;5126010;28;20024;-43
2021/06/12 06:35:23;;;;;;;2.78;2.58;;;24.90;67.40;;;;;;5126203;28;20050;-42
2021/06/12 06:37:49;;;;;;;2.90;2.70;;;24.90;67.40;;;;;;5125843;28;20034;-42
2021/06/12 06:40:16;;;;;;;2.65;2.45;;;24.90;67.40;;;;;;5126012;28;20031;-43
2021/06/12 06:42:42;;;;;;;3.20;2.90;;;24.80;67.30;;;;;;5125737;28;20035;-43
2021/06/12 06:45:09;;;;;;;3.40;3.10;;;24.80;67.30;;;;;;5125838;28;20032;-43
2021/06/12 06:47:36;;;;;;;2.60;2.40;;;24.80;67.30;;;;;;5131128;27;20385;-42
2021/06/12 06:50:06;;;;;;;2.85;2.65;;;24.80;67.30;;;;;;5142624;27;20038;-42
2021/06/12 06:52:33;;;;;;;3.60;2.83;;;24.80;67.30;;;;;;5146216;27;20030;-41
2021/06/12 06:54:59;;;;;;;2.83;2.63;;;24.80;67.40;;;;;;5139947;27;20033;-42
2021/06/12 06:57:25;;;;;;;3.00;2.80;;;24.80;67.40;;;;;;5125542;28;20070;-43
2021/06/12 06:59:52;;;;;;;2.87;2.67;;;24.80;67.40;;;;;;5125297;28;20036;-43
2021/06/12 07:02:18;;;;;;;3.17;2.97;;;24.80;67.40;;;;;;5125492;28;20023;-42
2021/06/12 07:04:44;;;;;;;2.80;2.60;;;24.80;67.40;;;;;;5124873;28;20032;-43
2021/06/12 07:07:10;;;;;;;2.85;2.65;;;24.80;67.50;;;;;;5125158;28;20026;-42
2021/06/12 07:09:36;;;;;;;2.88;2.67;;;24.80;67.40;;;;;;5125179;28;20104;-43
2021/06/12 07:12:03;;;;;;;2.80;2.60;;;24.80;67.40;;;;;;5110663;28;20053;-42
2021/06/12 07:14:29;;;;;;;2.72;2.53;;;24.80;67.50;;;;;;5105112;28;20032;-42
2021/06/12 07:16:56;;;;;;;3.15;2.85;;;24.80;67.40;;;;;;5104820;28;20052;-41
2021/06/12 07:19:22;;;;;;;3.08;2.78;;;24.70;67.40;;;;;;5121055;28;20051;-42
2021/06/12 07:21:48;;;;;;;3.67;2.80;;;24.70;67.50;;;;;;5125202;28;20023;-42
2021/06/12 07:24:15;;;;;;;3.08;2.78;;;24.70;67.50;;;;;;5125006;28;20731;-42
2021/06/12 07:26:42;;;;;;;2.70;2.50;;;24.70;67.50;;;;;;5124981;28;20038;-42
2021/06/12 07:29:10;;;;;;;2.90;2.70;;;24.70;67.50;;;;;;5124619;28;20442;-43
2021/06/12 07:31:39;;;;;;;3.42;3.13;;;24.70;67.50;;;;;;5125290;28;20424;-42
2021/06/12 07:34:06;;;;;;;3.13;2.92;;;24.70;67.40;;;;;;5124939;28;20027;-42
2021/06/12 07:36:32;;;;;;;2.67;2.47;;;24.70;67.50;;;;;;5106174;28;20038;-43
2021/06/12 07:38:59;;;;;;;3.20;2.90;;;24.70;67.50;;;;;;5124628;28;20084;-42
2021/06/12 07:41:26;;;;;;;2.72;2.53;;;24.70;67.50;;;;;;5124323;28;20039;-43
2021/06/12 07:43:52;;;;;;;;;;;24.70;67.40;;;;;;5125426;28;20430;-43
2021/06/12 07:46:18;;;;;;;2.80;2.60;;;24.60;67.40;;;;;;5124675;28;19967;-43
2021/06/12 07:48:44;;;;;;;2.85;2.58;;;24.70;67.50;;;;;;5098389;28;20039;-42
2021/06/12 07:51:10;;;;;;;2.67;2.47;;;24.60;67.50;;;;;;5121941;28;20084;-42
2021/06/12 07:53:36;;;;;;;3.10;2.90;;;24.60;67.50;;;;;;5105992;28;20028;-42
2021/06/12 07:56:03;;;;;;;3.42;3.13;;;24.60;67.60;;;;;;5124389;28;20039;-43
2021/06/12 07:58:29;;;;;;;2.85;2.65;;;24.60;67.50;;;;;;5124372;28;20051;-43
2021/06/12 08:00:55;;;;;;;2.80;2.60;;;24.60;67.50;;;;;;5124151;28;20030;-43
2021/06/12 08:03:21;;;;;;;3.08;2.85;;;24.60;67.60;;;;;;5124236;28;20020;-42
2021/06/12 08:05:47;;;;;;;2.88;2.67;;;24.60;67.60;;;;;;5124396;28;20028;-43
2021/06/12 08:08:13;;;;;;;2.88;2.67;;;24.60;67.60;;;;;;5124245;28;20080;-43
2021/06/12 08:10:39;;;;;;;2.90;2.70;;;24.60;67.60;;;;;;5123753;28;20434;-43
2021/06/12 08:13:06;;;;;;;2.42;2.22;;;24.60;67.60;;;;;;5124266;28;20054;-42
2021/06/12 08:15:32;;;;;;;3.75;2.60;;;24.60;67.60;;;;;;5124375;28;20028;-43
2021/06/12 08:17:58;;;;;;;2.92;2.72;;;24.60;67.70;;;;;;5123275;28;20087;-42
2021/06/12 08:20:24;;;;;;;4.22;3.00;;;24.50;67.60;;;;;;5123632;28;20024;-42
2021/06/12 08:22:51;;;;;;;3.05;2.78;;;24.50;67.60;;;;;;5124128;28;20024;-42
2021/06/12 08:25:18;;;;;;;3.20;2.70;;;24.60;67.60;;;;;;5123644;28;20031;-43
2021/06/12 08:27:45;;;;;;;3.33;2.85;;;24.60;67.70;;;;;;5123911;28;20028;-43
2021/06/12 08:30:11;;;;;;;3.00;2.80;;;24.50;67.60;;;;;;5123386;28;20035;-43
2021/06/12 08:32:38;;;;;;;3.22;2.92;;;24.60;67.70;;;;;;5123659;28;20024;-46
2021/06/12 08:35:06;;;;;;;2.80;2.60;;;24.50;67.60;;;;;;5123714;28;20091;-42
2021/06/12 08:37:32;;;;;;;;;;;24.50;67.60;;;;;;5124171;28;20020;-42
2021/06/12 08:39:58;;;;;;;3.03;2.83;;;24.50;67.60;;;;;;5123535;28;19914;-42
2021/06/12 08:42:25;;;;;;;2.80;2.60;;;24.50;67.60;;;;;;5105922;28;20374;-43
2021/06/12 08:44:52;;;;;;;2.70;2.50;;;24.50;67.70;;;;;;5103142;28;20031;-43
2021/06/12 08:47:18;;;;;;;;;;;24.50;67.60;;;;;;5095022;28;20055;-42
2021/06/12 08:49:44;;;;;;;2.80;2.60;;;24.50;67.60;;;;;;5103347;28;19924;-42
2021/06/12 08:52:10;;;;;;;2.80;2.60;;;24.50;67.70;;;;;;5102817;28;20024;-43
2021/06/12 08:54:41;;;;;;;2.83;2.63;;;24.50;67.70;;;;;;5104753;28;20027;-43
2021/06/12 08:57:08;;;;;;;2.97;2.75;;;24.50;67.60;;;;;;5123339;28;20114;-43
2021/06/12 08:59:35;;;;;;;3.20;2.90;;;24.50;67.70;;;;;;5123510;28;20032;-42
2021/06/12 09:02:03;;;;;;;2.70;2.47;;;24.40;67.70;;;;;;5122796;28;20077;-41
2021/06/12 09:04:30;;;;;;;;;;;24.40;67.60;;;;;;5123681;28;20130;-42
2021/06/12 09:07:18;;;;;;;2.97;2.78;;;24.40;67.60;;;;;;5123326;28;19908;-43
2021/06/12 09:09:45;;;;;;;2.88;2.67;;;24.50;67.70;;;;;;5123118;28;20032;-42
2021/06/12 09:12:11;;;;;;;3.35;3.05;;;24.40;67.60;;;;;;5107028;28;20031;-42
2021/06/12 09:14:37;;;;;;;3.15;2.95;;;24.40;67.60;;;;;;5103099;28;20039;-42
2021/06/12 09:17:03;;;;;;;2.92;2.67;;;24.40;67.60;;;;;;5102497;28;20402;-43
2021/06/12 09:19:30;;;;;;;2.80;2.60;;;24.40;67.60;;;;;;5101761;28;20032;-42
2021/06/12 09:21:56;;;;;;;2.67;2.47;;;24.40;67.60;;;;;;5087654;28;20030;-42
2021/06/12 09:24:27;;;;;;;3.92;2.40;;;24.40;67.60;;;;;;5123075;28;20101;-43
2021/06/12 09:26:58;;;;;;;3.17;2.97;;;24.40;67.60;;;;;;5102313;28;20035;-41
2021/06/12 09:29:38;;;;;;;2.92;2.72;;;24.40;67.70;;;;;;5104870;28;20032;-43
2021/06/12 09:32:18;;;;;;;2.80;2.60;;;24.40;67.70;;;;;;5106475;28;20028;-42
2021/06/12 09:34:46;;;;;;;2.53;2.33;;;24.40;67.60;;;;;;5088058;28;20031;-43
2021/06/12 09:37:20;;;;;;;2.58;2.38;;;24.40;67.60;;;;;;5108513;28;20110;-43
2021/06/12 09:40:00;;;;;;;2.85;2.63;;;24.40;67.70;;;;;;5126612;28;20184;-42
2021/06/12 09:42:45;;;;;;;2.95;2.75;;;24.40;67.70;;;;;;5108044;28;20039;-42
2021/06/12 09:45:13;;;;;;;3.00;2.80;;;24.40;67.70;;;;;;5124005;28;20035;-42
2021/06/12 09:47:39;;;;;;;2.70;2.50;;;24.40;67.70;;;;;;5125113;27;20412;-43
2021/06/12 09:50:06;;;;;;;2.95;2.50;;;24.40;67.60;;;;;;5135838;27;20039;-42
2021/06/12 09:52:52;;;;;;;4.82;2.67;;;24.30;67.70;;;;;;5147213;27;20652;-43
2021/06/12 09:55:28;;;;;;;3.05;2.85;;;24.30;67.70;;;;;;5139779;27;20628;-43
2021/06/12 09:57:56;;;;;;;2.80;2.60;;;24.30;67.70;;;;;;5108574;28;20062;-43
2021/06/12 10:00:39;;;;;;;3.08;2.88;;;24.40;67.70;;;;;;5108474;28;20020;-42
2021/06/12 10:03:32;;;;;;;2.95;2.65;;;24.30;67.60;;;;;;5126616;28;20031;-43
2021/06/12 10:06:21;;;;;;;3.08;2.88;;;24.30;67.70;;;;;;5126537;28;20077;-42
2021/06/12 10:08:51;;;;;;;3.08;2.58;;;24.40;67.70;;;;;;5126374;28;20028;-42
2021/06/12 10:11:24;;;;;;;2.53;2.33;;;24.30;67.60;;;;;;5126067;28;20023;-42
2021/06/12 10:13:50;;;;;;;3.00;2.80;;;24.30;67.60;;;;;;5126169;28;20031;-42
2021/06/12 10:16:17;;;;;;;2.95;2.75;;;24.30;67.70;;;;;;5090949;28;20027;-42
2021/06/12 10:18:43;;;;;;;2.55;2.35;;;24.30;67.70;;;;;;5126151;28;20043;-42
2021/06/12 10:21:11;;;;;;;3.08;2.88;;;24.30;67.60;;;;;;5125994;28;20058;-42
2021/06/12 10:23:40;;;;;;;2.70;2.50;;;24.30;67.70;;;;;;5126447;28;20062;-42
2021/06/12 10:26:07;;;;;;;2.90;2.70;;;24.30;67.70;;;;;;5125969;28;20115;-43
2021/06/12 10:28:34;;;;;;;2.80;2.60;;;24.30;67.70;;;;;;5125911;28;20031;-42
2021/06/12 10:31:07;;;;;;;2.90;2.70;;;24.30;67.80;;;;;;5125900;28;20035;-41
2021/06/12 10:33:33;;;;;;;2.85;2.58;;;24.30;67.70;;;;;;5108396;28;20019;-42
2021/06/12 10:36:11;;;;;;;2.88;2.67;;;24.30;67.70;;;;;;5090752;28;20024;-43
2021/06/12 10:38:37;;;;;;;3.05;2.78;;;24.30;67.80;;;;;;5126048;28;20016;-42
2021/06/12 10:41:20;;;;;;;2.67;2.47;;;24.30;67.80;;;;;;5119526;28;20031;-42
2021/06/12 10:43:46;;;;;;;2.70;2.50;;;24.30;67.90;;;;;;5105363;28;20042;-42
2021/06/12 10:46:15;;;;;;;2.80;2.60;;;24.30;67.80;;;;;;5105642;28;20067;-43
2021/06/12 10:48:57;;;;;;;2.75;2.55;;;24.30;67.80;;;;;;5123327;27;20071;-42
2021/06/12 10:51:26;;;;;;;2.80;2.60;;;24.30;67.70;;;;;;5086669;28;20517;-42
2021/06/12 10:54:08;;;;;;;2.97;2.78;;;24.30;67.80;;;;;;5105329;28;20024;-42
2021/06/12 10:56:36;;;;;;;2.90;2.70;;;24.30;67.80;;;;;;5123394;28;20031;-42
2021/06/12 10:59:02;;;;;;;2.70;2.50;;;24.30;67.70;;;;;;5125286;28;20055;-43
2021/06/12 11:01:30;;;;;;;2.97;2.70;;;24.30;67.80;;;;;;5125400;28;20031;-41
2021/06/12 11:04:12;;;;;;;2.95;2.72;;;24.30;67.80;;;;;;5125324;28;20563;-42
2021/06/12 11:07:22;;;;;;;2.72;2.53;;;24.30;67.80;;;;;;5125412;28;20049;-41
2021/06/12 11:09:48;;;;;;;3.17;2.97;;;24.30;67.80;;;;;;5107829;28;20102;-43
2021/06/12 11:12:14;;;;;;;3.40;3.08;;;24.20;67.70;;;;;;5108500;28;20024;-43
2021/06/12 11:14:40;;;;;;;2.72;2.53;;;24.20;67.80;;;;;;5104858;28;20705;-42
2021/06/12 11:17:10;;;;;;;2.97;2.78;;;24.30;67.80;;;;;;5086609;28;20024;-42
2021/06/12 11:19:36;;;;;;;3.00;2.80;;;24.30;67.90;;;;;;5123014;28;20039;-43
2021/06/12 11:22:24;;;;;;;2.60;2.40;;;24.20;67.80;;;;;;5124975;28;20083;-42
2021/06/12 11:24:57;;;;;;;2.92;2.65;;;24.20;67.90;;;;;;5125006;28;20042;-43
2021/06/12 11:27:31;;;;;;;2.97;2.78;;;24.20;67.80;;;;;;5125115;28;20028;-42
2021/06/12 11:30:19;;;;;;;2.75;2.55;;;24.20;67.90;;;;;;5124753;28;20035;-43
2021/06/12 11:33:06;;;;;;;2.90;2.70;;;24.20;67.90;;;;;;5123775;28;20024;-43
2021/06/12 11:35:38;;;;;;;2.83;2.63;;;24.20;67.90;;;;;;5107221;28;20095;-42
2021/06/12 11:38:15;;;;;;;2.72;2.53;;;24.20;68.00;;;;;;5124626;28;20030;-43
2021/06/12 11:40:58;;;;;;;2.58;2.38;;;24.20;67.90;;;;;;5124204;28;20079;-42
2021/06/12 11:43:33;;;;;;;3.08;2.88;;;24.20;68.00;;;;;;5124599;28;20028;-43
2021/06/12 11:46:01;;;;;;;2.67;2.47;;;24.20;68.00;;;;;;5124643;28;20087;-42
2021/06/12 11:48:27;;;;;;;2.90;2.70;;;24.20;67.90;;;;;;5128390;27;20226;-42
2021/06/12 11:50:53;;;;;;;3.03;2.72;;;24.20;67.90;;;;;;5124127;28;20027;-42
2021/06/12 11:53:20;;;;;;;2.57;2.37;;;24.20;67.90;;;;;;5124073;28;20456;-43
2021/06/12 11:55:47;;;;;;;;;;;24.20;67.90;;;;;;5124908;28;20023;-41
2021/06/12 11:58:13;;;;;;;2.72;2.53;;;24.20;67.90;;;;;;5124010;28;19924;-42
2021/06/12 12:00:50;;;;;;;2.80;2.60;;;24.20;68.60;;;;;;5124396;28;20059;-42
2021/06/12 12:03:17;;;;;;;2.97;2.78;;;24.20;68.00;;;;;;5124426;28;20051;-42
2021/06/12 12:05:51;;;;;;;3.00;2.80;;;24.20;67.90;;;;;;5124139;28;20024;-42
2021/06/12 12:08:21;;;;;;;2.63;2.42;;;24.20;67.90;;;;;;5123262;28;20092;-43
2021/06/12 12:10:51;;;;;;;2.83;2.63;;;24.20;67.90;;;;;;5101497;28;20040;-42
2021/06/12 12:13:37;;;;;;;2.70;2.50;;;24.20;67.90;;;;;;5103940;28;20020;-43
2021/06/12 12:16:04;;;;;;;2.80;2.60;;;24.20;67.90;;;;;;5103707;28;20103;-42
2021/06/12 12:18:42;;;;;;;3.30;2.80;;;24.20;68.00;;;;;;5113064;28;20032;-42
2021/06/12 12:21:08;;;;;;;2.92;2.72;;;24.20;68.00;;;;;;5103012;28;20031;-43
2021/06/12 12:23:35;;;;;;;3.70;2.58;;;24.20;68.10;;;;;;5103581;28;20032;-43
2021/06/12 12:26:21;;;;;;;3.10;2.90;;;24.20;68.00;;;;;;5103546;28;20021;-42
2021/06/12 12:29:08;;;;;;;2.90;2.70;;;24.20;68.10;;;;;;5103366;28;20111;-41
2021/06/12 12:31:42;;;;;;;3.15;2.83;;;24.20;68.00;;;;;;5103277;28;20036;-43
2021/06/12 12:34:09;;;;;;;2.63;2.42;;;24.20;68.10;;;;;;5101580;28;20028;-42
2021/06/12 12:36:49;;;;;;;2.92;2.72;;;24.20;68.10;;;;;;5103124;28;20108;-41
2021/06/12 12:39:15;;;;;;;2.90;2.70;;;24.20;68.00;;;;;;5103065;28;20031;-43
2021/06/12 12:41:55;;;;;;;4.03;2.78;;;24.20;68.10;;;;;;5114681;28;20032;-43
2021/06/12 12:44:21;;;;;;;2.55;2.35;;;24.20;68.00;;;;;;5105380;28;20011;-43
2021/06/12 12:46:47;;;;;;;2.73;2.53;;;24.20;68.00;;;;;;5123550;28;20035;-41
2021/06/12 12:49:21;;;;;;;2.95;2.72;;;24.20;68.00;;;;;;5124320;27;20035;-41
2021/06/12 12:51:51;;;;;;;3.42;3.13;;;24.20;68.00;;;;;;5143770;27;20027;-42
2021/06/12 12:54:18;;;;;;;3.95;2.90;;;24.20;68.00;;;;;;5143910;27;20087;-41
2021/06/12 12:56:49;;;;;;;2.90;2.70;;;24.20;68.00;;;;;;5143913;27;20031;-43
2021/06/12 12:59:34;;;;;;;3.25;3.05;;;24.20;68.00;;;;;;5143603;27;20047;-41